createdAt,value
2019-04-24T00:02:25.032Z,10.70
2019-04-24T00:05:03.592Z,10.33
2019-04-24T00:07:16.703Z,10.10
2019-04-24T00:10:28.397Z,10.87
2019-04-24T00:13:17.275Z,12.43
2019-04-24T00:16:08.503Z,11.73
2019-04-24T00:19:07.897Z,11.67
2019-04-24T00:21:21.535Z,11.83
2019-04-24T00:24:14.365Z,11.90
2019-04-24T00:27:01.561Z,11.80
2019-04-24T00:29:39.202Z,12.80
2019-04-24T00:32:26.475Z,10.83
2019-04-24T00:38:25.103Z,11.30
2019-04-24T00:40:25.335Z,12.40
2019-04-24T00:51:16.470Z,13.00
2019-04-24T00:56:30.021Z,12.50
2019-04-24T00:59:09.788Z,11.17
2019-04-24T01:02:23.376Z,12.70
2019-04-24T01:08:19.429Z,12.27
2019-04-24T01:11:05.717Z,12.80
2019-04-24T01:14:05.149Z,13.20
2019-04-24T01:19:06.507Z,12.73
2019-04-24T01:22:14.121Z,12.70
2019-04-24T01:24:37.871Z,12.10
2019-04-24T01:27:19.696Z,13.40
2019-04-24T01:30:11.146Z,14.13
2019-04-24T01:32:37.124Z,12.70
2019-04-24T01:35:32.523Z,13.27
2019-04-24T01:38:19.501Z,13.87
2019-04-24T01:41:05.394Z,12.30
2019-04-24T01:46:35.500Z,11.80
2019-04-24T01:49:31.489Z,13.93
2019-04-24T01:57:41.587Z,13.43
2019-04-24T02:00:29.313Z,13.53
2019-04-24T02:02:54.748Z,14.10
2019-04-24T02:05:31.512Z,13.97
2019-04-24T02:08:26.446Z,12.93
2019-04-24T02:11:28.431Z,13.13
2019-04-24T02:14:01.885Z,13.00
2019-04-24T02:16:43.344Z,15.17
2019-04-24T02:19:23.592Z,14.40
2019-04-24T02:22:04.658Z,13.53
2019-04-24T02:25:14.640Z,13.70
2019-04-24T02:34:00.698Z,13.97
2019-04-24T02:42:42.886Z,15.20
2019-04-24T02:50:23.056Z,14.27
2019-04-24T02:53:36.465Z,13.80
2019-04-24T03:01:14.643Z,15.03
2019-04-24T03:04:18.422Z,15.00
2019-04-24T03:07:21.044Z,14.17
2019-04-24T03:13:01.286Z,15.40
2019-04-24T03:23:38.876Z,15.60
2019-04-24T03:26:51.895Z,14.93
2019-04-24T03:34:42.943Z,15.97
2019-04-24T03:37:01.202Z,15.80
2019-04-24T03:39:40.808Z,15.87
2019-04-24T03:42:35.801Z,16.60
2019-04-24T03:45:09.108Z,16.47
2019-04-24T03:47:59.435Z,15.93
2019-04-24T03:51:24.144Z,16.70
2019-04-24T04:05:16.468Z,16.70
2019-04-24T04:10:32.652Z,16.83
2019-04-24T04:16:05.643Z,16.20
2019-04-24T04:21:44.890Z,15.43
2019-04-24T04:30:09.242Z,17.17
2019-04-24T04:33:31.573Z,17.13
2019-04-24T04:35:56.884Z,17.27
2019-04-24T04:47:25.506Z,18.40
2019-04-24T04:50:18.015Z,19.27
2019-04-24T04:53:00.899Z,16.90
2019-04-24T05:15:00.674Z,19.30
2019-04-24T05:17:34.348Z,18.50
2019-04-24T05:20:27.045Z,19.60
2019-04-24T05:22:56.548Z,17.70
2019-04-24T05:28:33.600Z,20.90
2019-04-24T05:31:11.496Z,19.43
2019-04-24T05:33:31.902Z,24.20
2019-04-24T05:36:29.656Z,38.10
2019-04-24T05:41:44.986Z,30.23
2019-04-24T05:44:18.762Z,22.53
2019-04-24T05:46:58.940Z,20.60
2019-04-24T05:49:51.752Z,21.57
2019-04-24T05:55:36.108Z,20.73
2019-04-24T05:58:05.897Z,19.77
2019-04-24T06:01:00.567Z,20.67
2019-04-24T06:04:10.806Z,37.63
2019-04-24T06:09:34.978Z,20.50
2019-04-24T06:15:41.843Z,21.20
2019-04-24T06:26:31.462Z,20.97
2019-04-24T06:29:26.337Z,21.57
2019-04-24T06:32:24.565Z,18.87
2019-04-24T06:38:29.375Z,21.80
2019-04-24T06:41:23.578Z,20.97
2019-04-24T06:43:54.358Z,18.57
2019-04-24T06:46:58.899Z,20.83
2019-04-24T07:06:14.140Z,19.97
2019-04-24T07:08:37.179Z,20.43
2019-04-24T07:11:42.263Z,19.53
2019-04-24T07:14:44.946Z,19.80
2019-04-24T07:28:24.815Z,18.03
2019-04-24T07:31:42.924Z,18.67
2019-04-24T07:34:42.837Z,18.13
2019-04-24T07:36:55.717Z,18.43
2019-04-24T07:42:30.780Z,17.67
2019-04-24T07:47:39.589Z,19.37
2019-04-24T07:50:20.703Z,20.50
2019-04-24T07:53:22.026Z,20.67
2019-04-24T07:55:43.050Z,20.03
2019-04-24T07:58:35.427Z,20.17
2019-04-24T08:03:34.216Z,21.63
2019-04-24T08:06:15.227Z,20.50
2019-04-24T08:11:35.838Z,19.40
2019-04-24T08:14:09.554Z,20.00
2019-04-24T08:16:47.668Z,19.60
2019-04-24T08:19:54.362Z,19.83
2019-04-24T08:22:33.377Z,20.33
2019-04-24T08:30:26.169Z,18.93
2019-04-24T08:32:57.569Z,18.27
2019-04-24T08:35:52.658Z,18.07
2019-04-24T08:38:59.311Z,18.43
2019-04-24T08:44:20.954Z,18.50
2019-04-24T08:46:57.732Z,18.00
2019-04-24T08:49:35.949Z,17.53
2019-04-24T08:52:21.419Z,17.80
2019-04-24T09:00:16.000Z,17.20
2019-04-24T09:03:32.582Z,17.10
2019-04-24T09:09:05.969Z,17.33
2019-04-24T09:14:33.571Z,15.53
2019-04-24T09:17:23.109Z,16.27
2019-04-24T09:20:14.820Z,16.13
2019-04-24T09:26:19.480Z,14.30
2019-04-24T09:31:36.005Z,14.60
2019-04-24T09:34:25.894Z,13.33
2019-04-24T09:37:33.072Z,16.60
2019-04-24T09:40:41.872Z,12.80
2019-04-24T09:46:09.968Z,13.40
2019-04-24T09:54:21.354Z,12.10
2019-04-24T09:57:13.423Z,11.10
2019-04-24T10:00:29.533Z,11.13
2019-04-24T10:03:18.828Z,10.53
2019-04-24T10:08:34.909Z,8.63
2019-04-24T10:11:20.336Z,8.40
2019-04-24T10:14:05.718Z,8.13
2019-04-24T10:16:55.441Z,8.50
2019-04-24T10:29:08.829Z,7.67
2019-04-24T10:31:44.894Z,7.23
2019-04-24T10:34:15.120Z,8.00
2019-04-24T10:37:15.099Z,9.07
2019-04-24T10:53:53.769Z,7.47
2019-04-24T10:56:34.351Z,7.23
2019-04-24T10:58:59.047Z,6.83
2019-04-24T11:04:48.790Z,6.30
2019-04-24T11:07:53.626Z,6.80
2019-04-24T11:10:49.086Z,7.43
2019-04-24T11:13:40.796Z,6.47
2019-04-24T11:16:59.796Z,5.97
2019-04-24T11:22:32.329Z,6.10
2019-04-24T11:25:19.954Z,6.50
2019-04-24T11:28:25.611Z,5.80
2019-04-24T11:30:56.695Z,6.17
2019-04-24T11:33:57.689Z,5.90
2019-04-24T11:36:34.416Z,5.60
2019-04-24T11:39:31.845Z,5.57
2019-04-24T11:41:49.363Z,5.60
2019-04-24T11:47:30.368Z,4.87
2019-04-24T11:56:51.426Z,5.30
2019-04-24T11:59:00.923Z,6.20
2019-04-24T12:05:13.789Z,6.27
2019-04-24T12:08:00.183Z,5.23
2019-04-24T12:10:31.208Z,5.50
2019-04-24T12:19:21.554Z,5.40
2019-04-24T12:22:03.987Z,15.37
2019-04-24T12:27:44.556Z,6.03
2019-04-24T12:30:07.943Z,5.43
2019-04-24T12:39:15.002Z,6.30
2019-04-24T12:41:50.590Z,5.20
2019-04-24T12:44:44.971Z,4.90
2019-04-24T12:50:01.779Z,4.60
2019-04-24T12:55:34.469Z,10.60
2019-04-24T12:58:34.659Z,8.73
2019-04-24T13:04:12.120Z,4.57
2019-04-24T13:06:34.543Z,3.80
2019-04-24T13:09:23.653Z,4.47
2019-04-24T13:15:18.054Z,4.00
2019-04-24T13:18:26.765Z,5.07
2019-04-24T13:20:38.982Z,5.63
2019-04-24T13:23:34.543Z,4.80
2019-04-24T13:26:40.500Z,5.30
2019-04-24T13:29:43.971Z,5.30
2019-04-24T13:32:37.319Z,5.20
2019-04-24T13:35:27.497Z,4.90
2019-04-24T13:38:10.313Z,4.93
2019-04-24T13:40:57.524Z,4.77
2019-04-24T13:46:09.832Z,4.50
2019-04-24T13:49:13.882Z,4.20
2019-04-24T13:52:23.083Z,4.90
2019-04-24T13:57:15.417Z,4.57
2019-04-24T13:59:56.050Z,4.50
2019-04-24T14:02:50.686Z,4.53
2019-04-24T14:05:09.156Z,4.73
2019-04-24T14:08:20.640Z,4.67
2019-04-24T14:11:22.374Z,4.90
2019-04-24T14:13:34.348Z,5.13
2019-04-24T14:19:41.932Z,4.63
2019-04-24T14:22:12.700Z,4.70
2019-04-24T14:25:12.838Z,10.43
2019-04-24T14:27:35.827Z,7.33
2019-04-24T14:30:17.123Z,5.27
2019-04-24T14:33:05.912Z,4.80
2019-04-24T14:35:38.660Z,5.40
2019-04-24T14:38:25.592Z,5.37
2019-04-24T14:40:50.651Z,4.97
2019-04-24T14:46:49.839Z,4.53
2019-04-24T14:49:51.973Z,4.60
2019-04-24T14:52:05.311Z,4.87
2019-04-24T14:55:02.729Z,4.50
2019-04-24T14:57:44.011Z,5.50
2019-04-24T15:00:18.550Z,4.67
2019-04-24T15:02:49.789Z,4.87
2019-04-24T15:05:52.968Z,4.20
2019-04-24T15:08:20.239Z,4.90
2019-04-24T15:13:51.810Z,8.13
2019-04-24T15:16:36.886Z,12.37
2019-04-24T15:19:09.046Z,6.73
2019-04-24T15:22:06.333Z,5.00
2019-04-24T15:27:12.809Z,5.40
2019-04-24T15:32:35.368Z,5.03
2019-04-24T15:35:22.129Z,4.77
2019-04-24T15:37:54.410Z,4.23
2019-04-24T15:40:43.249Z,4.50
2019-04-24T15:48:30.762Z,4.37
2019-04-24T15:51:00.201Z,5.30
2019-04-24T15:53:04.501Z,4.83
2019-04-24T15:55:59.051Z,4.73
2019-04-24T15:58:43.116Z,7.00
2019-04-24T16:06:42.578Z,8.10
2019-04-24T16:09:32.376Z,4.97
2019-04-24T16:12:07.000Z,4.83
2019-04-24T16:15:03.851Z,4.23
2019-04-24T16:17:52.452Z,7.37
2019-04-24T16:20:40.044Z,12.10
2019-04-24T16:23:06.455Z,6.30
2019-04-24T16:25:42.350Z,9.40
2019-04-24T16:28:39.004Z,9.03
2019-04-24T16:31:12.689Z,6.77
2019-04-24T16:34:00.006Z,5.20
2019-04-24T16:39:21.514Z,5.00
2019-04-24T16:43:08.644Z,5.47
2019-04-24T17:15:49.386Z,5.17
2019-04-24T17:19:03.049Z,6.53
2019-04-24T17:21:54.053Z,6.00
2019-04-24T17:27:07.718Z,5.77
2019-04-24T17:29:48.515Z,6.10
2019-04-24T17:32:21.663Z,5.80
2019-04-24T17:37:19.835Z,5.07
2019-04-24T17:40:04.429Z,5.70
2019-04-24T17:42:57.779Z,4.93
2019-04-24T17:45:51.821Z,5.17
2019-04-24T17:48:13.457Z,7.43
2019-04-24T17:51:01.720Z,8.70
2019-04-24T17:56:11.860Z,9.90
2019-04-24T17:58:21.428Z,7.50
2019-04-24T18:01:08.062Z,5.10
2019-04-24T18:03:41.580Z,6.27
2019-04-24T18:06:31.905Z,5.20
2019-04-24T18:09:06.206Z,7.27
2019-04-24T18:11:38.163Z,7.07
2019-04-24T18:14:11.631Z,6.57
2019-04-24T18:16:45.715Z,6.10
2019-04-24T18:19:19.766Z,6.33
2019-04-24T18:21:52.315Z,6.17
2019-04-24T18:24:38.779Z,6.17
2019-04-24T18:27:12.916Z,5.60
2019-04-24T18:29:44.843Z,6.27
2019-04-24T18:32:21.067Z,6.97
2019-04-24T18:34:55.737Z,6.30
2019-04-24T18:37:48.297Z,5.30
2019-04-24T18:40:21.338Z,5.87
2019-04-24T18:42:56.565Z,5.40
2019-04-24T18:45:29.243Z,6.20
2019-04-24T18:48:02.184Z,5.97
2019-04-24T18:50:34.535Z,5.30
2019-04-24T18:53:09.043Z,6.17
2019-04-24T18:55:42.344Z,6.03
2019-04-24T18:58:14.627Z,6.30
2019-04-24T19:00:46.652Z,6.40
2019-04-24T19:03:19.434Z,6.30
2019-04-24T19:05:53.095Z,6.80
2019-04-24T19:08:25.675Z,6.60
2019-04-24T19:10:58.797Z,7.43
2019-04-24T19:13:32.103Z,6.53
2019-04-24T19:16:09.351Z,6.00
2019-04-24T19:18:47.921Z,13.40
2019-04-24T19:21:21.474Z,15.43
2019-04-24T19:23:59.757Z,11.50
2019-04-24T19:26:31.579Z,10.10
2019-04-24T19:29:11.890Z,6.73
2019-04-24T19:31:43.275Z,5.80
2019-04-24T19:34:18.787Z,14.03
2019-04-24T19:36:50.280Z,25.23
2019-04-24T19:39:26.946Z,19.17
2019-04-24T19:42:02.441Z,13.47
2019-04-24T19:44:44.747Z,9.50
2019-04-24T19:47:29.668Z,7.90
2019-04-24T19:50:07.271Z,7.00
2019-04-24T19:52:33.674Z,6.60
2019-04-24T19:55:08.412Z,5.90
2019-04-24T19:57:40.021Z,6.20
2019-04-24T20:00:13.841Z,6.63
2019-04-24T20:06:43.039Z,6.30
2019-04-24T20:09:39.628Z,6.17
2019-04-24T20:12:14.326Z,9.77
2019-04-24T20:14:47.661Z,8.90
2019-04-24T20:17:22.407Z,18.80
2019-04-24T20:19:54.292Z,15.27
2019-04-24T20:25:21.459Z,7.30
2019-04-24T20:27:57.362Z,6.83
2019-04-24T20:30:31.347Z,8.07
2019-04-24T20:33:06.083Z,7.20
2019-04-24T20:35:41.298Z,6.10
2019-04-24T20:38:16.707Z,6.30
2019-04-24T20:40:48.259Z,7.23
2019-04-24T20:43:20.029Z,6.70
2019-04-24T20:45:51.732Z,6.27
2019-04-24T20:48:26.335Z,6.67
2019-04-24T20:50:57.757Z,7.43
2019-04-24T20:53:39.550Z,6.30
2019-04-24T20:56:05.250Z,8.17
2019-04-24T20:58:36.801Z,6.27
2019-04-24T21:01:11.590Z,6.10
2019-04-24T21:03:45.948Z,6.30
2019-04-24T21:06:42.546Z,6.53
2019-04-24T21:09:44.775Z,6.60
2019-04-24T21:12:18.660Z,6.60
2019-04-24T21:15:11.222Z,7.40
2019-04-24T21:17:44.376Z,6.33
2019-04-24T21:20:22.902Z,7.23
2019-04-24T21:23:01.604Z,6.80
2019-04-24T21:26:02.338Z,10.13
2019-04-24T21:28:41.758Z,17.90
2019-04-24T21:31:24.202Z,14.23
2019-04-24T21:33:58.731Z,10.60
2019-04-24T21:36:32.434Z,9.20
2019-04-24T21:39:06.727Z,6.90
2019-04-24T21:41:38.118Z,6.40
2019-04-24T21:44:09.927Z,7.30
2019-04-24T21:46:48.486Z,6.40
2019-04-24T21:49:29.296Z,5.70
2019-04-24T21:52:06.953Z,6.80
2019-04-24T21:54:38.505Z,6.67
2019-04-24T21:57:22.676Z,6.43
2019-04-24T22:00:01.497Z,6.70
2019-04-24T22:02:52.185Z,7.07
2019-04-24T22:05:33.710Z,6.03
2019-04-24T22:08:06.792Z,6.13
2019-04-24T22:10:41.394Z,8.00
2019-04-24T22:13:14.769Z,6.23
2019-04-24T22:15:48.872Z,7.40
2019-04-24T22:18:22.569Z,5.90
2019-04-24T22:21:10.759Z,7.87
2019-04-24T22:24:02.688Z,6.30
2019-04-24T22:26:37.775Z,7.13
2019-04-24T22:29:09.825Z,6.47
2019-04-24T22:31:55.938Z,6.20
2019-04-24T22:34:42.187Z,6.33
2019-04-24T22:37:16.881Z,6.80
2019-04-24T22:39:58.436Z,7.37
2019-04-24T22:42:29.887Z,7.30
2019-04-24T22:45:02.612Z,7.60
2019-04-24T22:47:36.681Z,6.20
2019-04-24T22:50:08.081Z,7.40
2019-04-24T22:52:41.698Z,7.00
2019-04-24T22:55:18.063Z,5.80
2019-04-24T22:57:50.424Z,7.63
2019-04-24T23:00:32.718Z,6.70
2019-04-24T23:03:09.620Z,6.40
2019-04-24T23:05:43.736Z,6.90
2019-04-24T23:08:17.870Z,6.60
2019-04-24T23:10:50.005Z,6.67
2019-04-24T23:13:21.985Z,7.90
2019-04-24T23:15:55.481Z,7.20
2019-04-24T23:18:27.331Z,5.90
2019-04-24T23:21:29.961Z,7.03
2019-04-24T23:24:09.734Z,7.00
2019-04-24T23:26:55.359Z,6.50
2019-04-24T23:29:51.170Z,6.63
2019-04-24T23:32:44.321Z,7.17
2019-04-24T23:35:18.335Z,5.73
2019-04-24T23:37:51.375Z,6.20
2019-04-24T23:40:29.765Z,6.60
2019-04-24T23:43:03.707Z,7.40
2019-04-24T23:45:35.181Z,7.27
2019-04-24T23:48:07.919Z,6.40
2019-04-24T23:50:42.832Z,7.00
2019-04-24T23:53:17.325Z,7.10
2019-04-24T23:55:48.767Z,6.40
2019-04-24T23:58:20.136Z,6.17
